VGEG/CGP METAR and TAF weather

Enter ICAO airport designator
Station Type Date Time Source
VGEG METAR 2021/04/14 14:00 UTC NOAA

VGEG 141400Z 00000KT 5000 HZ FEW016 SCT100 29/25 Q1008 NOSIG


Station Type Date Time Source
VGEG Decoded METAR 2021/04/14 14:00 UTC NOAA

Chittagong Patenga , Bangladesh (VGEG) 22-16N 091-49E 6M
Apr 14, 2021 - 10:00 AM EDT / 2021.04.14 1400 UTC
Wind: Calm:0
Visibility: 3 mile(s):0
Sky conditions: partly cloudy
Weather: haze
Temperature: 84 F (29 C)
Dew Point: 77 F (25 C)
Relative Humidity: 79%
Pressure (altimeter): 29.77 in. Hg (1008 hPa)
ob: VGEG 141400Z 00000KT 5000 HZ FEW016 SCT100 29/25 Q1008 NOSIG
cycle: 14

Station Type Date Time Source
VGEG TAF 2021/04/14 12:30 UTC NOAA

TAF TAF VGEG 141100Z 1412/1518 23008KT 3500 HZ FEW018
BECMG 1418/1420 26004KT 2500 HZ FEW015 SCT100
TEMPO 1421/1501 00000KT 2000 BR SCT014 SCT100
BECMG 507/1509 23008KT 4500 HZ FEW020

Example: see airport list